Llanes en Asturias

latitud = 43° 25' 13''N | longitud = 004° 44' 53''W
10 metros sobre el nivel del mar | datos mensuales

Fecha, hora, temperatura, viento dirección y velocidad, humedad y presión.

  • 21-06-2018 22:00:00 | 19.20°C | Nordeste |6.00 km/h | 89.00% | 1021.60 hPa
  • 21-06-2018 21:00:00 | 19.30°C | Nordeste |12.00 km/h | 88.00% | 1021.50 hPa
  • 21-06-2018 20:00:00 | 19.80°C | Nordeste |6.00 km/h | 86.00% | 1021.40 hPa
  • 21-06-2018 19:00:00 | 20.50°C | Noroeste |10.00 km/h | 83.00% | 1021.20 hPa
  • 21-06-2018 18:00:00 | 20.60°C | Noroeste |14.00 km/h | 83.00% | 1020.80 hPa
  • 21-06-2018 17:00:00 | 21.00°C | Noroeste |12.00 km/h | 81.00% | 1020.70 hPa
  • 21-06-2018 16:00:00 | 20.60°C | Noroeste |13.00 km/h | 81.00% | 1020.80 hPa
  • 21-06-2018 15:00:00 | 20.90°C | Noroeste |11.00 km/h | 80.00% | 1020.80 hPa
  • 21-06-2018 14:00:00 | 20.40°C | Noroeste |12.00 km/h | 82.00% | 1020.80 hPa
  • 21-06-2018 13:00:00 | 20.10°C | Noroeste |11.00 km/h | 84.00% | 1020.90 hPa
  • 21-06-2018 12:00:00 | 20.30°C | Noroeste |16.00 km/h | 83.00% | 1020.50 hPa
  • 21-06-2018 11:00:00 | 20.40°C | Noroeste |18.00 km/h | 82.00% | 1020.10 hPa
  • 21-06-2018 10:00:00 | 19.60°C | Noroeste |12.00 km/h | 86.00% | 1019.90 hPa
  • 21-06-2018 09:00:00 | 19.30°C | Noroeste |9.00 km/h | 87.00% | 1019.80 hPa
  • 21-06-2018 08:00:00 | 19.20°C | Oeste |4.00 km/h | 86.00% | 1019.40 hPa
  • 21-06-2018 07:00:00 | 19.30°C | Nordeste |2.00 km/h | 85.00% | 1018.90 hPa
  • 21-06-2018 06:00:00 | 19.30°C | Oeste |5.00 km/h | 85.00% | 1019.30 hPa
  • 21-06-2018 05:00:00 | 19.50°C | Oeste |6.00 km/h | 84.00% | 1019.40 hPa
  • 21-06-2018 04:00:00 | 19.50°C | Sudoeste |4.00 km/h | 83.00% | 1019.30 hPa
  • 21-06-2018 03:00:00 | 19.40°C | Sudoeste |6.00 km/h | 84.00% | 1019.40 hPa
  • 21-06-2018 02:00:00 | 19.40°C | Oeste |6.00 km/h | 83.00% | 1019.80 hPa
  • 21-06-2018 01:00:00 | 19.50°C | Oeste |5.00 km/h | 83.00% | 1019.90 hPa
  • 21-06-2018 00:00:00 | 19.60°C | Oeste |6.00 km/h | 83.00% | 1019.80 hPa
  • 20-06-2018 23:00:00 | 19.70°C | Noroeste |7.00 km/h | 83.00% | 1019.60 hPa